Terminal Aerodrome Forecast
Issued by NWS Boise, ID

Home | Current Version | Previous Version | Text Only | Print | Product List | Glossary On
Versions: 1 2 3 4 5 6 7 8 9 10 11 12 13 14
000
FTUS45 KBOI 161739
TAFBNO
TAF
KBNO 161739Z 1618/1718 VRB04KT P6SM SKC
     FM162100 25010KT P6SM SCT100 BKN200
     FM170300 VRB05KT P6SM BKN100
     FM171500 09005KT P6SM VCSH OVC050=

USA.gov is the U.S. government's official web portal to all federal, state and local government web resources and services.